Time;durP1;ratioP1;P1;durP2;ratioP2;P2;SDS_P1;SDS_P2;PMS_P1;PMS_P2;Temp;Humidity;BMP_temperature;BMP_pressure;BME280_temperature;BME280_humidity;BME280_pressure;Samples;Min_cycle;Max_cycle;Signal;HPM_P1;HPM_P2
2021/06/04 00:00:15;;;;;;;3.40;3.10;;;23.50;99.90;;;;;;5034728;28;20849;-70
2021/06/04 00:02:41;;;;;;;3.30;2.80;;;23.50;99.90;;;;;;5032087;28;20586;-69
2021/06/04 00:05:10;;;;;;;3.50;2.93;;;23.50;99.90;;;;;;5031867;28;20458;-69
2021/06/04 00:07:37;;;;;;;2.10;1.97;;;23.50;99.90;;;;;;5033213;28;20800;-69
2021/06/04 00:10:06;;;;;;;2.33;2.13;;;23.40;99.90;;;;;;5031849;28;20482;-69
2021/06/04 00:12:32;;;;;;;2.70;2.37;;;23.40;99.90;;;;;;5031513;28;20600;-69
2021/06/04 00:14:58;;;;;;;2.53;2.23;;;23.40;99.90;;;;;;5032471;28;20462;-69
2021/06/04 00:17:26;;;;;;;2.33;2.13;;;23.40;99.90;;;;;;5033703;28;20465;-69
2021/06/04 00:19:53;;;;;;;4.37;2.03;;;23.40;99.90;;;;;;5033128;28;20465;-69
2021/06/04 00:22:21;;;;;;;4.60;2.57;;;23.40;99.90;;;;;;5030418;28;20473;-70
2021/06/04 00:24:50;;;;;;;2.85;2.55;;;23.40;99.90;;;;;;5028781;28;20458;-70
2021/06/04 00:27:16;;;;;;;3.30;2.37;;;23.30;99.90;;;;;;5033784;28;20207;-70
2021/06/04 00:29:43;;;;;;;2.60;2.40;;;23.30;99.90;;;;;;5030672;28;20478;-69
2021/06/04 00:32:11;;;;;;;4.70;3.00;;;23.30;99.90;;;;;;5024987;28;20458;-70
2021/06/04 00:34:40;;;;;;;2.43;2.23;;;23.30;99.90;;;;;;5032401;28;20497;-69
2021/06/04 00:37:07;;;;;;;3.20;2.33;;;23.30;99.90;;;;;;5032846;28;20869;-69
2021/06/04 00:39:35;;;;;;;2.60;2.40;;;23.30;99.90;;;;;;5031327;28;20455;-69
2021/06/04 00:42:06;;;;;;;3.80;2.93;;;23.20;99.90;;;;;;5025230;28;20490;-69
2021/06/04 00:44:35;;;;;;;3.00;2.70;;;23.20;99.90;;;;;;5031937;28;20460;-69
2021/06/04 00:47:01;;;;;;;3.05;2.70;;;23.20;99.90;;;;;;5032069;28;20462;-69
2021/06/04 00:49:28;;;;;;;2.40;2.17;;;23.20;99.90;;;;;;5032025;28;20269;-69
2021/06/04 00:51:59;;;;;;;2.50;2.30;;;23.20;99.90;;;;;;5026666;28;20789;-69
2021/06/04 00:54:26;;;;;;;3.40;2.53;;;23.20;99.90;;;;;;5030758;28;20458;-70
2021/06/04 00:56:53;;;;;;;2.30;2.10;;;23.20;99.90;;;;;;5031443;28;20453;-69
2021/06/04 00:59:27;;;;;;;2.63;2.30;;;23.10;99.90;;;;;;5029018;28;21153;-70
2021/06/04 01:01:54;;;;;;;2.40;2.20;;;23.10;99.90;;;;;;5031549;28;20210;-70
2021/06/04 01:04:24;;;;;;;2.97;2.67;;;23.10;99.90;;;;;;5032115;28;20196;-70
2021/06/04 01:06:54;;;;;;;5.55;2.60;;;23.10;99.90;;;;;;5031083;28;20261;-70
2021/06/04 01:09:31;;;;;;;2.40;2.20;;;23.00;99.90;;;;;;5031361;28;20234;-70
2021/06/04 01:12:30;;;;;;;2.45;2.25;;;23.00;99.90;;;;;;5031214;28;20195;-71
2021/06/04 01:15:04;;;;;;;2.90;2.70;;;23.00;99.90;;;;;;5031725;28;20207;-70
2021/06/04 01:17:36;;;;;;;3.50;3.10;;;23.00;99.90;;;;;;5022586;28;20199;-70
2021/06/04 01:20:08;;;;;;;2.85;2.53;;;23.00;99.90;;;;;;5030301;28;20203;-70
2021/06/04 01:23:09;;;;;;;2.80;2.60;;;23.00;99.90;;;;;;5030058;28;20210;-70
2021/06/04 01:25:43;;;;;;;3.13;2.83;;;22.90;99.90;;;;;;5027550;28;20207;-70
2021/06/04 01:28:17;;;;;;;3.10;2.85;;;23.00;99.90;;;;;;5030703;28;20202;-69
2021/06/04 01:30:47;;;;;;;2.70;2.50;;;22.90;99.90;;;;;;5031997;28;20559;-70
2021/06/04 01:33:19;;;;;;;4.03;3.20;;;22.90;99.90;;;;;;5030729;28;20233;-70
2021/06/04 01:35:51;;;;;;;2.78;2.58;;;22.90;99.90;;;;;;5029541;28;20199;-70
2021/06/04 01:38:21;;;;;;;2.75;2.55;;;22.90;99.90;;;;;;5030932;28;20204;-70
2021/06/04 01:40:51;;;;;;;3.88;2.97;;;22.90;99.90;;;;;;5029822;28;20282;-70
2021/06/04 01:43:26;;;;;;;2.50;2.30;;;22.90;99.90;;;;;;5030585;28;20581;-70
2021/06/04 01:45:55;;;;;;;4.00;2.78;;;22.80;99.90;;;;;;5029664;28;20215;-70
2021/06/04 01:48:25;;;;;;;3.47;3.17;;;22.80;99.90;;;;;;5023009;28;20632;-70
2021/06/04 01:50:57;;;;;;;3.00;2.75;;;22.80;99.90;;;;;;5028819;28;20203;-70
2021/06/04 01:53:28;;;;;;;2.65;2.45;;;22.80;99.90;;;;;;5030857;28;20198;-70
2021/06/04 01:56:00;;;;;;;3.70;3.30;;;22.80;99.90;;;;;;5024583;28;20262;-70
2021/06/04 01:58:29;;;;;;;3.42;3.13;;;22.80;99.90;;;;;;5031365;28;20616;-70
2021/06/04 02:01:00;;;;;;;3.50;3.20;;;22.80;99.90;;;;;;5030456;28;20199;-70
2021/06/04 02:03:27;;;;;;;3.05;2.78;;;22.80;99.90;;;;;;5012303;28;20215;-70
2021/06/04 02:05:58;;;;;;;2.22;2.03;;;22.80;99.90;;;;;;5025883;28;20211;-70
2021/06/04 02:08:27;;;;;;;3.22;2.92;;;22.70;99.90;;;;;;5028240;28;20199;-70
2021/06/04 02:10:56;;;;;;;3.30;3.10;;;22.70;99.90;;;;;;5029707;28;20208;-70
2021/06/04 02:13:23;;;;;;;2.78;2.58;;;22.70;99.90;;;;;;5035211;28;20203;-70
2021/06/04 02:16:05;;;;;;;2.90;2.60;;;22.70;99.90;;;;;;5036221;28;20724;-70
2021/06/04 02:18:40;;;;;;;2.80;2.60;;;22.60;99.90;;;;;;5036413;28;20208;-70
2021/06/04 02:21:14;;;;;;;3.30;2.90;;;22.60;99.90;;;;;;5037365;28;20253;-68
2021/06/04 02:23:46;;;;;;;2.80;2.60;;;22.70;99.90;;;;;;5036817;28;20187;-71
2021/06/04 02:26:18;;;;;;;3.42;3.13;;;22.70;99.90;;;;;;5035937;28;20195;-71
2021/06/04 02:28:48;;;;;;;3.05;2.85;;;22.60;99.90;;;;;;5037276;28;20537;-72
2021/06/04 02:31:20;;;;;;;2.88;2.67;;;22.60;99.90;;;;;;5035701;28;20207;-72
2021/06/04 02:33:51;;;;;;;3.60;3.30;;;22.60;99.90;;;;;;5036817;28;20231;-72
2021/06/04 02:36:20;;;;;;;2.28;2.17;;;22.60;99.90;;;;;;5037186;28;20333;-72
2021/06/04 02:38:52;;;;;;;3.05;2.85;;;22.60;99.90;;;;;;5033350;28;20249;-72
2021/06/04 02:41:26;;;;;;;2.70;2.50;;;22.60;99.90;;;;;;5031789;28;20590;-72
2021/06/04 02:43:57;;;;;;;2.80;2.60;;;22.50;99.90;;;;;;5032272;28;20214;-71
2021/06/04 02:46:28;;;;;;;3.08;2.88;;;22.50;99.90;;;;;;5032135;28;20199;-71
2021/06/04 02:48:55;;;;;;;3.03;2.80;;;22.50;99.90;;;;;;5034082;28;20208;-71
2021/06/04 02:51:29;;;;;;;3.45;2.80;;;22.50;99.90;;;;;;5030360;28;20215;-71
2021/06/04 02:53:57;;;;;;;3.80;2.92;;;22.50;99.90;;;;;;5035235;28;20196;-70
2021/06/04 02:56:28;;;;;;;2.90;2.70;;;22.50;99.90;;;;;;5033339;28;20205;-69
2021/06/04 02:58:58;;;;;;;3.80;3.45;;;22.50;99.90;;;;;;5031503;28;20188;-69
2021/06/04 03:01:26;;;;;;;3.47;3.13;;;22.50;99.90;;;;;;5033078;28;20210;-70
2021/06/04 03:03:52;;;;;;;3.40;2.75;;;22.50;99.90;;;;;;5031335;28;20191;-70
2021/06/04 03:06:24;;;;;;;2.63;2.38;;;22.50;99.90;;;;;;5033648;28;20253;-71
2021/06/04 03:08:51;;;;;;;2.45;2.25;;;22.40;99.90;;;;;;5027727;28;20305;-70
2021/06/04 03:11:19;;;;;;;2.83;2.50;;;22.40;99.90;;;;;;5025931;28;20548;-71
2021/06/04 03:13:48;;;;;;;3.40;3.20;;;22.40;99.90;;;;;;5033640;28;20203;-71
2021/06/04 03:16:19;;;;;;;3.55;3.25;;;22.40;99.90;;;;;;5034676;28;20285;-71
2021/06/04 03:18:50;;;;;;;2.90;2.70;;;22.40;99.90;;;;;;5035638;28;20215;-71
2021/06/04 03:21:19;;;;;;;3.20;3.00;;;22.40;99.90;;;;;;5036667;28;20199;-71
2021/06/04 03:23:46;;;;;;;3.10;2.90;;;22.40;99.90;;;;;;5035677;28;20200;-70
2021/06/04 03:26:16;;;;;;;3.10;2.90;;;22.40;99.90;;;;;;5032413;28;20252;-70
2021/06/04 03:28:44;;;;;;;3.65;3.35;;;22.40;99.90;;;;;;5032452;28;20226;-70
2021/06/04 03:31:14;;;;;;;3.20;3.00;;;22.30;99.90;;;;;;5033482;28;20677;-70
2021/06/04 03:33:41;;;;;;;4.45;4.05;;;22.30;99.90;;;;;;5032612;28;20792;-70
2021/06/04 03:36:12;;;;;;;4.65;4.10;;;22.30;99.90;;;;;;5022493;28;20258;-70
2021/06/04 03:38:39;;;;;;;4.28;3.90;;;22.30;99.90;;;;;;5022261;28;20196;-70
2021/06/04 03:41:06;;;;;;;4.50;4.10;;;22.30;99.90;;;;;;5013964;28;20536;-71
2021/06/04 03:43:33;;;;;;;4.05;3.65;;;22.30;99.90;;;;;;5033932;28;20200;-70
2021/06/04 03:45:59;;;;;;;5.05;4.65;;;22.30;99.90;;;;;;5030907;28;20207;-70
2021/06/04 03:48:30;;;;;;;4.30;3.90;;;22.20;99.90;;;;;;5031876;28;20206;-70
2021/06/04 03:50:59;;;;;;;3.90;3.60;;;22.20;99.90;;;;;;5024961;28;20204;-69
2021/06/04 03:53:27;;;;;;;3.65;3.38;;;22.20;99.90;;;;;;5032689;28;20541;-70
2021/06/04 03:55:54;;;;;;;4.63;4.22;;;22.20;99.90;;;;;;5027564;28;20238;-70
2021/06/04 03:58:21;;;;;;;4.53;4.13;;;22.20;99.90;;;;;;5032797;28;20187;-70
2021/06/04 04:00:50;;;;;;;4.75;4.35;;;22.20;99.90;;;;;;5028477;28;20210;-71
2021/06/04 04:03:19;;;;;;;4.57;4.18;;;22.20;99.90;;;;;;5033405;28;20579;-70
2021/06/04 04:05:47;;;;;;;5.30;4.90;;;22.20;99.90;;;;;;5032090;28;20199;-70
2021/06/04 04:08:14;;;;;;;3.75;3.45;;;22.20;99.90;;;;;;5032805;28;20552;-70
2021/06/04 04:10:42;;;;;;;5.03;4.63;;;22.20;99.90;;;;;;5029656;28;20215;-70
2021/06/04 04:13:09;;;;;;;3.75;3.38;;;22.10;99.90;;;;;;5026589;28;20636;-70
2021/06/04 04:15:35;;;;;;;5.38;4.97;;;22.10;99.90;;;;;;5028930;28;20283;-70
2021/06/04 04:18:03;;;;;;;5.07;4.22;;;22.10;99.90;;;;;;5028022;28;20219;-70
2021/06/04 04:20:32;;;;;;;4.18;3.88;;;22.10;99.90;;;;;;5029886;28;20261;-72
2021/06/04 04:23:00;;;;;;;4.40;3.90;;;22.10;99.90;;;;;;5029326;28;20269;-71
2021/06/04 04:25:28;;;;;;;4.20;3.90;;;22.10;99.90;;;;;;5029082;28;20192;-71
2021/06/04 04:27:54;;;;;;;4.13;3.75;;;22.10;99.90;;;;;;5029787;28;20199;-71
2021/06/04 04:30:21;;;;;;;4.15;3.85;;;22.10;99.90;;;;;;5027707;28;20219;-71
2021/06/04 04:32:47;;;;;;;4.60;4.20;;;22.10;99.90;;;;;;5029398;28;20647;-71
2021/06/04 04:35:16;;;;;;;5.40;4.90;;;22.10;99.90;;;;;;5028530;28;20211;-71
2021/06/04 04:37:42;;;;;;;5.30;4.80;;;22.10;99.90;;;;;;5028407;28;20210;-71
2021/06/04 04:40:12;;;;;;;5.20;4.80;;;22.00;99.90;;;;;;5029104;28;20203;-71
2021/06/04 04:42:39;;;;;;;4.25;3.83;;;22.00;99.90;;;;;;5029191;28;20210;-71
2021/06/04 04:45:08;;;;;;;5.00;4.55;;;22.00;99.90;;;;;;5029217;28;20191;-70
2021/06/04 04:47:34;;;;;;;5.32;4.93;;;22.00;99.90;;;;;;5028266;28;20656;-70
2021/06/04 04:50:01;;;;;;;5.28;4.82;;;22.00;99.90;;;;;;5030131;28;20218;-70
2021/06/04 04:52:27;;;;;;;4.55;4.15;;;22.00;99.90;;;;;;5031892;28;20203;-71
2021/06/04 04:54:55;;;;;;;4.85;4.45;;;22.00;99.90;;;;;;5032399;28;20214;-70
2021/06/04 04:57:25;;;;;;;5.47;4.97;;;22.00;99.90;;;;;;5026093;28;20261;-70
2021/06/04 04:59:51;;;;;;;4.65;4.25;;;21.90;99.90;;;;;;5028903;28;20195;-70
2021/06/04 05:02:18;;;;;;;6.00;5.50;;;22.00;99.90;;;;;;5029214;28;20532;-70
2021/06/04 05:04:44;;;;;;;4.72;4.32;;;21.90;99.90;;;;;;5028950;28;20738;-71
2021/06/04 05:07:11;;;;;;;5.22;4.82;;;21.90;99.90;;;;;;5031696;28;20203;-71
2021/06/04 05:09:37;;;;;;;4.70;4.35;;;21.90;99.90;;;;;;5031424;28;20635;-70
2021/06/04 05:12:04;;;;;;;4.25;3.95;;;21.90;99.90;;;;;;5031108;28;20212;-70
2021/06/04 05:14:32;;;;;;;4.30;3.90;;;21.90;99.90;;;;;;5032420;28;20195;-71
2021/06/04 05:17:00;;;;;;;4.32;4.03;;;21.90;99.90;;;;;;5030045;28;20231;-70
2021/06/04 05:19:26;;;;;;;5.60;5.10;;;22.00;99.90;;;;;;5022821;28;20279;-71
2021/06/04 05:21:53;;;;;;;4.88;4.47;;;21.90;99.90;;;;;;5027298;28;20207;-71
2021/06/04 05:24:20;;;;;;;4.40;4.00;;;21.90;99.90;;;;;;5031642;28;20214;-71
2021/06/04 05:26:46;;;;;;;3.88;3.58;;;21.90;99.90;;;;;;5031105;28;20257;-71
2021/06/04 05:29:12;;;;;;;4.57;4.20;;;21.80;99.90;;;;;;5028797;28;20215;-71
2021/06/04 05:31:40;;;;;;;4.20;3.90;;;21.90;99.90;;;;;;5025336;28;20254;-71
2021/06/04 05:34:07;;;;;;;5.65;5.15;;;21.90;99.90;;;;;;5024419;28;20230;-70
2021/06/04 05:36:35;;;;;;;4.85;4.45;;;21.90;99.90;;;;;;5027799;28;20214;-70
2021/06/04 05:39:06;;;;;;;6.50;5.95;;;21.90;99.90;;;;;;5022894;28;20192;-69
2021/06/04 05:41:33;;;;;;;4.70;4.40;;;21.90;99.90;;;;;;5028657;28;20203;-70
2021/06/04 05:43:59;;;;;;;4.65;4.35;;;21.90;99.90;;;;;;5028227;28;20203;-70
2021/06/04 05:46:26;;;;;;;7.20;4.50;;;21.90;99.90;;;;;;5026834;28;20202;-70
2021/06/04 05:48:53;;;;;;;5.45;4.93;;;21.90;99.90;;;;;;5025800;28;20202;-69
2021/06/04 05:51:27;;;;;;;6.68;6.13;;;21.90;99.90;;;;;;5025751;28;20196;-70
2021/06/04 05:53:53;;;;;;;6.38;5.78;;;21.90;99.90;;;;;;5025980;28;20191;-70
2021/06/04 05:56:21;;;;;;;5.50;5.00;;;21.90;99.90;;;;;;5023431;28;20200;-69
2021/06/04 05:58:48;;;;;;;4.55;4.10;;;22.00;99.90;;;;;;5026214;28;20200;-69
2021/06/04 06:01:16;;;;;;;5.07;4.57;;;22.20;99.90;;;;;;5030917;28;20203;-70
2021/06/04 06:03:43;;;;;;;4.38;4.00;;;22.30;99.90;;;;;;5015121;28;20204;-70
2021/06/04 06:06:13;;;;;;;4.57;4.18;;;22.50;99.90;;;;;;5027669;28;20616;-69
2021/06/04 06:08:40;;;;;;;4.55;4.15;;;22.60;99.90;;;;;;5022941;28;20200;-70
2021/06/04 06:11:06;;;;;;;4.27;3.87;;;22.70;99.90;;;;;;5024376;28;20214;-69
2021/06/04 06:13:33;;;;;;;4.03;3.70;;;22.80;99.90;;;;;;5023875;28;20461;-70
2021/06/04 06:16:00;;;;;;;4.63;4.22;;;23.00;99.90;;;;;;5027819;28;20203;-69
2021/06/04 06:18:26;;;;;;;5.30;4.80;;;23.10;99.90;;;;;;5029725;28;20226;-69
2021/06/04 06:20:53;;;;;;;5.00;4.60;;;23.20;99.90;;;;;;5022196;28;20469;-69
2021/06/04 06:23:25;;;;;;;4.07;3.77;;;23.30;99.90;;;;;;5028907;28;20485;-70
2021/06/04 06:25:55;;;;;;;5.00;4.50;;;23.40;99.90;;;;;;5030339;28;20462;-70
2021/06/04 06:28:24;;;;;;;4.00;3.70;;;23.50;99.90;;;;;;5028312;28;20471;-69
2021/06/04 06:30:51;;;;;;;4.40;4.10;;;23.60;99.90;;;;;;5030931;28;20470;-69
2021/06/04 06:33:17;;;;;;;4.20;3.80;;;23.70;99.90;;;;;;5028701;28;20481;-70
2021/06/04 06:35:47;;;;;;;4.70;4.30;;;23.80;99.90;;;;;;5016061;28;20523;-70
2021/06/04 06:38:14;;;;;;;4.40;4.10;;;23.70;99.90;;;;;;5022507;28;20462;-70
2021/06/04 06:40:43;;;;;;;4.60;4.23;;;23.70;99.90;;;;;;5027196;28;20823;-70
2021/06/04 06:43:09;;;;;;;5.03;4.57;;;23.70;99.90;;;;;;5027544;28;20480;-69
2021/06/04 06:45:36;;;;;;;5.10;4.60;;;23.70;99.90;;;;;;5026181;28;20469;-70
2021/06/04 06:48:03;;;;;;;4.13;3.73;;;23.70;99.90;;;;;;5025938;28;20458;-70
2021/06/04 06:50:30;;;;;;;5.30;4.80;;;23.60;99.90;;;;;;5023012;28;20487;-70
2021/06/04 06:52:56;;;;;;;6.50;5.77;;;23.50;99.90;;;;;;5022936;28;20451;-70
2021/06/04 06:55:23;;;;;;;5.90;5.37;;;23.40;99.90;;;;;;5028491;28;20465;-70
2021/06/04 06:57:50;;;;;;;4.80;4.40;;;23.30;99.90;;;;;;5028996;28;20449;-70
2021/06/04 07:00:24;;;;;;;3.60;3.30;;;23.20;99.90;;;;;;5026566;28;20473;-70
2021/06/04 07:02:50;;;;;;;4.53;4.13;;;23.10;99.90;;;;;;5034084;28;20454;-70
2021/06/04 07:05:16;;;;;;;5.65;4.63;;;23.10;99.90;;;;;;5024600;28;20200;-69
2021/06/04 07:07:43;;;;;;;4.65;4.35;;;23.00;99.90;;;;;;5032075;28;20238;-70
2021/06/04 07:10:12;;;;;;;4.75;4.35;;;22.90;99.90;;;;;;5031528;28;20220;-71
2021/06/04 07:12:39;;;;;;;5.25;4.85;;;22.90;99.90;;;;;;5023394;28;20208;-71
2021/06/04 07:15:11;;;;;;;7.38;6.20;;;22.90;99.90;;;;;;5013342;28;20208;-71
2021/06/04 07:17:38;;;;;;;5.40;4.97;;;22.90;99.90;;;;;;5024250;28;20207;-70
2021/06/04 07:20:08;;;;;;;5.95;5.45;;;22.90;99.90;;;;;;5032100;28;20549;-70
2021/06/04 07:22:34;;;;;;;4.70;4.40;;;22.90;99.90;;;;;;5022811;28;20691;-70
2021/06/04 07:25:01;;;;;;;5.72;5.22;;;23.00;99.90;;;;;;5034058;28;20449;-70
2021/06/04 07:27:27;;;;;;;5.60;5.20;;;23.00;99.90;;;;;;5034672;28;20216;-70
2021/06/04 07:29:53;;;;;;;6.15;5.65;;;23.10;99.90;;;;;;5033336;28;20234;-69
2021/06/04 07:32:21;;;;;;;4.83;4.53;;;23.10;99.90;;;;;;5027810;28;20200;-70
2021/06/04 07:34:48;;;;;;;6.63;6.03;;;23.10;99.90;;;;;;5033433;28;20489;-69
2021/06/04 07:37:14;;;;;;;7.57;6.97;;;23.10;99.90;;;;;;5033565;28;20277;-69
2021/06/04 07:39:41;;;;;;;7.00;6.40;;;23.10;99.90;;;;;;5033683;28;20188;-70
2021/06/04 07:42:10;;;;;;;6.50;5.90;;;23.10;99.90;;;;;;5033836;28;20529;-69
2021/06/04 07:44:36;;;;;;;5.30;4.80;;;23.10;99.90;;;;;;5032809;28;20581;-69
2021/06/04 07:47:03;;;;;;;6.73;6.13;;;23.20;99.90;;;;;;5033418;28;20442;-70
2021/06/04 07:49:30;;;;;;;7.37;6.77;;;23.30;99.90;;;;;;5033699;28;20474;-70
2021/06/04 07:51:59;;;;;;;6.50;6.00;;;23.40;99.90;;;;;;5032551;28;20450;-69
2021/06/04 07:54:27;;;;;;;6.60;6.10;;;23.50;99.90;;;;;;5024658;28;20843;-69
2021/06/04 07:56:55;;;;;;;8.23;7.53;;;23.70;99.90;;;;;;5013985;28;20447;-70
2021/06/04 07:59:21;;;;;;;8.20;7.50;;;23.80;99.90;;;;;;5024790;28;20524;-70
2021/06/04 08:01:48;;;;;;;7.80;7.10;;;23.90;99.90;;;;;;5025441;28;20458;-70
2021/06/04 08:04:14;;;;;;;10.13;9.33;;;23.90;99.90;;;;;;5033499;28;20446;-70
2021/06/04 08:06:42;;;;;;;7.90;7.27;;;24.00;99.90;;;;;;5032125;28;20775;-70
2021/06/04 08:09:12;;;;;;;9.80;8.80;;;24.10;99.90;;;;;;5032871;28;20466;-70
2021/06/04 08:11:40;;;;;;;8.33;7.70;;;24.10;99.90;;;;;;5033629;28;20862;-69
2021/06/04 08:14:11;;;;;;;9.43;8.63;;;24.20;99.90;;;;;;5033407;28;20446;-69
2021/06/04 08:16:40;;;;;;;10.30;9.40;;;24.20;99.90;;;;;;5033090;28;20462;-69
2021/06/04 08:19:07;;;;;;;8.47;7.77;;;24.20;99.90;;;;;;5033663;28;20442;-69
2021/06/04 08:21:37;;;;;;;9.93;9.13;;;24.20;99.90;;;;;;5033190;28;20985;-70
2021/06/04 08:24:05;;;;;;;10.10;9.30;;;24.20;99.90;;;;;;5033801;28;20454;-70
2021/06/04 08:26:33;;;;;;;9.93;9.00;;;24.10;99.90;;;;;;5032182;28;20466;-70
2021/06/04 08:29:01;;;;;;;8.60;7.67;;;24.20;99.90;;;;;;5032034;28;20533;-70
2021/06/04 08:31:28;;;;;;;8.90;8.20;;;24.10;99.90;;;;;;5033007;28;20450;-70
2021/06/04 08:33:55;;;;;;;9.70;8.80;;;24.20;99.90;;;;;;5032115;28;20497;-72
2021/06/04 08:36:25;;;;;;;12.50;11.33;;;24.20;99.90;;;;;;5028807;28;20569;-70
2021/06/04 08:38:55;;;;;;;12.30;11.20;;;24.20;99.90;;;;;;5033277;28;20457;-72
2021/06/04 08:41:29;;;;;;;9.67;8.73;;;24.20;99.90;;;;;;5032293;28;20930;-70
2021/06/04 08:44:08;;;;;;;8.17;7.47;;;24.10;99.90;;;;;;5023743;28;20459;-71
2021/06/04 08:46:39;;;;;;;9.97;9.07;;;24.10;99.90;;;;;;5021378;28;20458;-70
2021/06/04 08:49:13;;;;;;;8.43;7.63;;;24.10;99.90;;;;;;5031749;28;20910;-69
2021/06/04 08:51:47;;;;;;;8.37;7.57;;;24.00;99.90;;;;;;5013163;28;20435;-71
2021/06/04 08:54:30;;;;;;;9.50;8.57;;;24.10;99.90;;;;;;5012741;28;20505;-71
2021/06/04 08:57:05;;;;;;;10.00;9.20;;;24.00;99.90;;;;;;5019598;28;20443;-70
2021/06/04 08:59:34;;;;;;;12.27;11.20;;;24.00;99.90;;;;;;5032026;28;20480;-71
2021/06/04 09:02:03;;;;;;;11.55;10.55;;;24.00;99.90;;;;;;5030665;28;20448;-71
2021/06/04 09:04:32;;;;;;;13.07;11.97;;;23.70;99.90;;;;;;5029249;28;20540;-71
2021/06/04 09:07:03;;;;;;;12.30;11.20;;;23.80;99.90;;;;;;5028040;28;20450;-71
2021/06/04 09:09:35;;;;;;;12.23;11.13;;;23.90;99.90;;;;;;5017517;28;20462;-70
2021/06/04 09:12:06;;;;;;;11.67;10.73;;;23.90;99.90;;;;;;5011592;28;20478;-71
2021/06/04 09:14:33;;;;;;;12.60;11.50;;;24.00;99.90;;;;;;5012278;28;20427;-72
2021/06/04 09:17:08;;;;;;;13.10;11.90;;;24.00;99.90;;;;;;5021333;28;20465;-70
2021/06/04 09:19:46;;;;;;;11.07;10.13;;;24.00;99.90;;;;;;5029617;28;20476;-71
2021/06/04 09:22:13;;;;;;;12.30;11.10;;;24.00;99.90;;;;;;5030800;28;20442;-71
2021/06/04 09:24:44;;;;;;;13.67;12.43;;;24.00;99.90;;;;;;5031413;28;20454;-70
2021/06/04 09:27:26;;;;;;;13.13;12.03;;;24.00;99.90;;;;;;5031375;28;20468;-71
2021/06/04 09:30:20;;;;;;;12.43;11.43;;;24.00;99.90;;;;;;5022640;28;20474;-71
2021/06/04 09:33:09;;;;;;;10.07;9.17;;;24.00;99.90;;;;;;5019242;28;20469;-73
2021/06/04 09:35:39;;;;;;;11.23;10.33;;;24.10;99.90;;;;;;5024494;28;20447;-75
2021/06/04 09:38:11;;;;;;;11.60;10.70;;;24.10;99.90;;;;;;5030429;28;20451;-73
2021/06/04 09:40:38;;;;;;;10.50;9.60;;;24.10;99.90;;;;;;5030731;28;20512;-73
2021/06/04 09:43:13;;;;;;;10.97;10.00;;;24.10;99.90;;;;;;5031659;28;20446;-71
2021/06/04 09:45:52;;;;;;;14.47;13.17;;;24.10;99.90;;;;;;5031940;28;20863;-70
2021/06/04 09:48:32;;;;;;;14.50;13.30;;;24.20;99.90;;;;;;5031066;28;20446;-70
2021/06/04 09:51:12;;;;;;;13.87;12.67;;;24.20;99.90;;;;;;5031417;28;20470;-70
2021/06/04 09:53:39;;;;;;;14.27;13.07;;;24.20;99.90;;;;;;5031142;28;20466;-70
2021/06/04 09:56:28;;;;;;;17.67;15.90;;;24.30;99.90;;;;;;5030490;28;20925;-71
2021/06/04 09:58:58;;;;;;;15.70;14.10;;;24.30;99.90;;;;;;5029218;28;20450;-70
2021/06/04 10:01:26;;;;;;;13.40;12.30;;;24.40;99.90;;;;;;5031040;28;20942;-70
2021/06/04 10:03:59;;;;;;;13.47;12.30;;;24.50;99.90;;;;;;5030742;28;20561;-71
2021/06/04 10:06:38;;;;;;;12.30;11.17;;;24.60;99.90;;;;;;5021132;28;20454;-70
2021/06/04 10:09:19;;;;;;;12.87;11.77;;;24.70;99.90;;;;;;5018680;28;20946;-72
2021/06/04 10:11:53;;;;;;;14.57;13.27;;;24.80;99.90;;;;;;5026519;28;20435;-72
2021/06/04 10:14:28;;;;;;;9.73;8.93;;;24.80;99.90;;;;;;5021519;28;20927;-72
2021/06/04 10:19:43;;;;;;;12.17;10.90;;;25.00;99.90;;;;;;5030868;28;20925;-73
2021/06/04 10:22:28;;;;;;;12.27;11.07;;;25.10;99.90;;;;;;5030213;28;20462;-72
2021/06/04 10:25:16;;;;;;;13.07;11.90;;;25.10;99.90;;;;;;5030915;28;20438;-71
2021/06/04 10:27:45;;;;;;;10.13;9.00;;;25.10;99.90;;;;;;5030067;28;20795;-71
2021/06/04 10:30:16;;;;;;;11.20;10.17;;;25.20;99.90;;;;;;5028172;28;20482;-71
2021/06/04 10:32:52;;;;;;;13.03;10.80;;;25.20;99.90;;;;;;5030647;28;20489;-70
2021/06/04 10:35:23;;;;;;;11.30;10.30;;;25.20;99.90;;;;;;5034240;28;20446;-70
2021/06/04 10:37:56;;;;;;;12.50;11.40;;;25.30;99.90;;;;;;5034422;28;20515;-70
2021/06/04 10:40:29;;;;;;;11.43;10.33;;;25.30;99.90;;;;;;5034851;28;20891;-69
2021/06/04 10:43:25;;;;;;;12.23;11.00;;;25.30;99.90;;;;;;5034752;28;20450;-71
2021/06/04 10:45:56;;;;;;;13.43;12.13;;;25.30;99.90;;;;;;5029891;28;20906;-69
2021/06/04 10:48:59;;;;;;;10.20;9.40;;;25.30;99.90;;;;;;5029223;28;21191;-69
2021/06/04 10:51:31;;;;;;;10.47;9.60;;;25.30;99.90;;;;;;5006910;28;20816;-70
2021/06/04 10:54:09;;;;;;;9.13;8.30;;;25.30;99.90;;;;;;5033606;28;20480;-71
2021/06/04 10:56:39;;;;;;;12.90;11.63;;;25.20;99.90;;;;;;5034167;28;20457;-72
2021/06/04 10:59:15;;;;;;;10.33;9.43;;;25.20;99.90;;;;;;5025555;28;20446;-72
2021/06/04 11:01:50;;;;;;;10.73;9.80;;;25.20;99.90;;;;;;5031259;28;20536;-72
2021/06/04 11:04:24;;;;;;;9.33;8.43;;;25.20;99.90;;;;;;5033929;28;20819;-71
2021/06/04 11:07:05;;;;;;;10.43;9.53;;;25.20;99.90;;;;;;5028651;28;20799;-71
2021/06/04 11:09:43;;;;;;;12.60;11.33;;;25.20;99.90;;;;;;5033691;28;20785;-72
2021/06/04 11:12:22;;;;;;;10.17;9.37;;;25.20;99.90;;;;;;5033149;28;20458;-71
2021/06/04 11:14:58;;;;;;;8.87;8.17;;;25.20;99.90;;;;;;5018280;28;20448;-71
2021/06/04 11:17:41;;;;;;;9.00;8.10;;;25.30;99.90;;;;;;5033667;28;20457;-71
2021/06/04 11:20:12;;;;;;;9.63;7.87;;;25.30;99.90;;;;;;5032839;28;20512;-71
2021/06/04 11:23:03;;;;;;;7.37;6.80;;;25.30;99.90;;;;;;5033613;28;20426;-71
2021/06/04 11:25:39;;;;;;;8.30;7.70;;;25.30;99.90;;;;;;5032997;28;20446;-71
2021/06/04 11:28:20;;;;;;;7.20;6.27;;;25.30;99.90;;;;;;5032992;28;20882;-71
2021/06/04 11:30:53;;;;;;;9.63;8.83;;;25.30;99.90;;;;;;5023397;28;20470;-71
2021/06/04 11:33:23;;;;;;;10.47;9.50;;;25.30;99.90;;;;;;5013570;28;20486;-71
2021/06/04 11:35:53;;;;;;;10.23;8.83;;;25.30;99.90;;;;;;5031573;28;20458;-70
2021/06/04 11:38:28;;;;;;;7.17;6.57;;;25.30;99.90;;;;;;5032761;28;20454;-70
2021/06/04 11:41:05;;;;;;;8.10;7.50;;;25.30;99.90;;;;;;5033796;28;20444;-70
2021/06/04 11:43:34;;;;;;;7.67;6.97;;;25.30;99.90;;;;;;5033432;28;20807;-72
2021/06/04 11:46:19;;;;;;;8.17;6.93;;;25.30;99.90;;;;;;5032487;28;20911;-72
2021/06/04 11:49:10;;;;;;;10.63;8.70;;;25.30;99.90;;;;;;5032698;28;20527;-72
2021/06/04 11:51:39;;;;;;;7.97;7.07;;;25.30;99.90;;;;;;5033594;28;20462;-72
2021/06/04 11:54:24;;;;;;;6.13;5.63;;;25.30;99.90;;;;;;5033265;28;20500;-72
2021/06/04 11:56:57;;;;;;;6.83;6.30;;;25.30;99.90;;;;;;5033278;28;20474;-72
2021/06/04 11:59:52;;;;;;;6.53;5.90;;;25.30;99.90;;;;;;5033583;28;20851;-72
2021/06/04 12:02:41;;;;;;;9.40;5.80;;;25.30;99.90;;;;;;5032851;28;20451;-73
2021/06/04 12:05:31;;;;;;;6.70;6.27;;;25.30;99.90;;;;;;5020125;28;20463;-70
2021/06/04 12:08:34;;;;;;;6.50;5.90;;;25.30;99.90;;;;;;5013301;28;20458;-72
2021/06/04 12:11:27;;;;;;;6.10;5.60;;;25.30;99.90;;;;;;5014394;28;20839;-72
2021/06/04 12:14:16;;;;;;;6.93;6.30;;;25.30;99.90;;;;;;5013317;28;20439;-72
2021/06/04 12:16:43;;;;;;;7.23;6.13;;;25.30;99.90;;;;;;5013814;28;20463;-73
2021/06/04 12:19:32;;;;;;;6.10;5.60;;;25.30;99.90;;;;;;5031377;28;20458;-72
2021/06/04 12:22:07;;;;;;;6.00;5.50;;;25.30;99.90;;;;;;5032980;28;20446;-73
2021/06/04 12:24:53;;;;;;;12.13;6.17;;;25.30;99.90;;;;;;5032881;28;20450;-72
2021/06/04 12:28:02;;;;;;;11.03;6.60;;;25.30;99.90;;;;;;5032189;28;20458;-72
2021/06/04 12:30:55;;;;;;;6.70;6.00;;;25.30;99.90;;;;;;5025845;28;20498;-73
2021/06/04 12:33:56;;;;;;;6.60;6.00;;;25.30;99.90;;;;;;5032620;28;20973;-72
2021/06/04 12:36:55;;;;;;;7.00;6.40;;;25.30;99.90;;;;;;5001933;28;20474;-72
2021/06/04 12:40:16;;;;;;;8.00;5.30;;;25.30;99.90;;;;;;5028508;28;20490;-72
2021/06/04 12:42:56;;;;;;;10.43;5.70;;;25.30;99.90;;;;;;5032262;28;20442;-72
2021/06/04 12:45:32;;;;;;;6.13;5.63;;;25.30;99.90;;;;;;5032511;28;20778;-72
2021/06/04 12:48:06;;;;;;;7.30;6.60;;;25.30;99.90;;;;;;5031909;28;20476;-72
2021/06/04 12:50:35;;;;;;;9.03;6.23;;;25.30;99.90;;;;;;5033137;28;20538;-72
2021/06/04 12:53:17;;;;;;;5.87;4.93;;;25.30;99.90;;;;;;5033604;28;20450;-72
2021/06/04 12:55:45;;;;;;;7.60;6.13;;;25.30;99.90;;;;;;5033458;28;20500;-72
2021/06/04 12:58:16;;;;;;;8.60;6.27;;;25.30;99.90;;;;;;5031696;28;20527;-73
2021/06/04 13:00:43;;;;;;;6.70;6.10;;;25.30;99.90;;;;;;5032115;28;20429;-73
2021/06/04 13:03:15;;;;;;;5.77;5.27;;;25.30;99.90;;;;;;5031412;28;20446;-72
2021/06/04 13:05:46;;;;;;;6.77;6.17;;;25.30;99.90;;;;;;5031673;28;20470;-72
2021/06/04 13:08:15;;;;;;;5.60;5.10;;;25.30;99.90;;;;;;5031704;28;20422;-72